sensor_id;sensor_type;location;lat;lon;timestamp;pressure;altitude;pressure_sealevel;temperature;humidity
44001;BME280;29660;42.892;24.710;2023-05-22T00:05:04;96413.22;;;8.06;100.00
44001;BME280;29660;42.892;24.710;2023-05-22T00:10:27;96171.31;;;6.36;100.00
44001;BME280;29660;42.892;24.710;2023-05-22T00:15:49;96886.66;;;11.01;100.00
44001;BME280;29660;42.892;24.710;2023-05-22T00:21:12;96849.53;;;10.53;100.00
44001;BME280;29660;42.892;24.710;2023-05-22T00:26:34;96290.50;;;7.00;100.00
44001;BME280;29660;42.892;24.710;2023-05-22T00:31:56;96261.13;;;6.91;100.00
44001;BME280;29660;42.892;24.710;2023-05-22T00:37:19;96770.63;;;10.15;100.00
44001;BME280;29660;42.892;24.710;2023-05-22T00:42:44;96263.94;;;6.76;100.00
44001;BME280;29660;42.892;24.710;2023-05-22T00:48:06;96813.91;;;10.44;100.00
44001;BME280;29660;42.892;24.710;2023-05-22T00:53:30;96875.94;;;10.88;100.00
44001;BME280;29660;42.892;24.710;2023-05-22T00:58:52;96877.53;;;10.89;100.00
44001;BME280;29660;42.892;24.710;2023-05-22T01:04:15;96785.97;;;10.23;100.00
44001;BME280;29660;42.892;24.710;2023-05-22T01:09:39;96453.22;;;7.91;100.00
44001;BME280;29660;42.892;24.710;2023-05-22T01:21:10;96905.34;;;10.82;100.00
44001;BME280;29660;42.892;24.710;2023-05-22T01:27:06;96901.47;;;10.75;100.00
44001;BME280;29660;42.892;24.710;2023-05-22T01:32:36;96823.06;;;10.19;100.00
44001;BME280;29660;42.892;24.710;2023-05-22T01:37:59;96693.97;;;9.12;100.00
44001;BME280;29660;42.892;24.710;2023-05-22T01:43:24;96865.81;;;10.33;100.00
44001;BME280;29660;42.892;24.710;2023-05-22T01:48:46;96906.66;;;10.47;100.00
44001;BME280;29660;42.892;24.710;2023-05-22T01:54:23;96265.84;;;6.41;100.00
44001;BME280;29660;42.892;24.710;2023-05-22T01:59:54;96890.75;;;9.99;100.00
44001;BME280;29660;42.892;24.710;2023-05-22T02:05:21;96229.63;;;5.97;100.00
44001;BME280;29660;42.892;24.710;2023-05-22T02:10:45;96271.91;;;6.07;100.00
44001;BME280;29660;42.892;24.710;2023-05-22T02:16:08;96352.06;;;6.57;100.00
44001;BME280;29660;42.892;24.710;2023-05-22T02:21:34;96712.38;;;8.55;100.00
44001;BME280;29660;42.892;24.710;2023-05-22T02:26:56;96464.16;;;7.31;100.00
44001;BME280;29660;42.892;24.710;2023-05-22T02:32:19;96865.41;;;9.78;100.00
44001;BME280;29660;42.892;24.710;2023-05-22T02:37:42;96904.16;;;9.89;100.00
44001;BME280;29660;42.892;24.710;2023-05-22T02:43:04;96257.81;;;5.73;100.00
44001;BME280;29660;42.892;24.710;2023-05-22T02:48:26;96567.13;;;7.58;100.00
44001;BME280;29660;42.892;24.710;2023-05-22T02:53:51;96883.03;;;9.74;100.00
44001;BME280;29660;42.892;24.710;2023-05-22T02:59:13;96766.75;;;8.97;100.00
44001;BME280;29660;42.892;24.710;2023-05-22T03:04:36;96324.34;;;6.05;100.00
44001;BME280;29660;42.892;24.710;2023-05-22T03:09:59;96261.63;;;5.51;100.00
44001;BME280;29660;42.892;24.710;2023-05-22T03:15:21;96311.72;;;5.87;100.00
44001;BME280;29660;42.892;24.710;2023-05-22T03:20:47;96675.66;;;8.28;100.00
44001;BME280;29660;42.892;24.710;2023-05-22T03:26:09;95743.19;;;2.33;100.00
44001;BME280;29660;42.892;24.710;2023-05-22T03:31:35;96220.94;;;5.42;100.00
44001;BME280;29660;42.892;24.710;2023-05-22T03:37:00;96919.34;;;9.65;100.00
44001;BME280;29660;42.892;24.710;2023-05-22T03:42:22;96715.69;;;9.19;100.00
44001;BME280;29660;42.892;24.710;2023-05-22T03:47:45;96213.41;;;6.09;100.00
44001;BME280;29660;42.892;24.710;2023-05-22T03:53:07;95761.53;;;3.44;100.00
44001;BME280;29660;42.892;24.710;2023-05-22T03:58:31;96708.84;;;9.94;100.00
44001;BME280;29660;42.892;24.710;2023-05-22T04:03:53;96779.75;;;11.25;100.00
44001;BME280;29660;42.892;24.710;2023-05-22T04:09:15;96306.59;;;9.16;100.00
44001;BME280;29660;42.892;24.710;2023-05-22T04:14:37;95877.31;;;7.53;100.00
44001;BME280;29660;42.892;24.710;2023-05-22T04:19:59;95912.19;;;8.16;100.00
44001;BME280;29660;42.892;24.710;2023-05-22T04:25:22;96489.72;;;12.06;100.00
44001;BME280;29660;42.892;24.710;2023-05-22T04:30:44;96342.97;;;11.07;100.00
44001;BME280;29660;42.892;24.710;2023-05-22T04:36:06;96354.31;;;11.13;100.00
44001;BME280;29660;42.892;24.710;2023-05-22T04:41:33;96858.22;;;14.53;100.00
44001;BME280;29660;42.892;24.710;2023-05-22T04:46:55;96219.53;;;10.30;100.00
44001;BME280;29660;42.892;24.710;2023-05-22T04:52:18;96511.13;;;12.14;100.00
44001;BME280;29660;42.892;24.710;2023-05-22T04:57:42;96772.63;;;13.33;100.00
44001;BME280;29660;42.892;24.710;2023-05-22T05:03:08;96309.63;;;10.28;100.00
44001;BME280;29660;42.892;24.710;2023-05-22T05:08:33;96713.59;;;12.76;100.00
44001;BME280;29660;42.892;24.710;2023-05-22T05:13:55;96386.09;;;10.78;100.00
44001;BME280;29660;42.892;24.710;2023-05-22T05:19:17;96786.63;;;13.30;100.00
44001;BME280;29660;42.892;24.710;2023-05-22T05:24:42;96738.94;;;13.10;100.00
44001;BME280;29660;42.892;24.710;2023-05-22T05:30:05;96410.53;;;11.16;100.00
44001;BME280;29660;42.892;24.710;2023-05-22T05:35:47;96440.03;;;11.65;100.00
44001;BME280;29660;42.892;24.710;2023-05-22T05:41:12;96862.28;;;14.41;100.00
44001;BME280;29660;42.892;24.710;2023-05-22T05:46:35;96849.06;;;14.71;100.00
44001;BME280;29660;42.892;24.710;2023-05-22T05:51:58;96340.28;;;11.38;100.00
44001;BME280;29660;42.892;24.710;2023-05-22T05:57:22;96312.22;;;11.98;100.00
44001;BME280;29660;42.892;24.710;2023-05-22T06:02:45;96841.97;;;15.39;100.00
44001;BME280;29660;42.892;24.710;2023-05-22T06:08:37;96811.94;;;15.46;100.00
44001;BME280;29660;42.892;24.710;2023-05-22T06:14:01;96480.50;;;13.56;100.00
44001;BME280;29660;42.892;24.710;2023-05-22T06:19:26;96784.03;;;15.68;100.00
44001;BME280;29660;42.892;24.710;2023-05-22T06:24:54;96830.56;;;16.40;100.00
44001;BME280;29660;42.892;24.710;2023-05-22T06:30:20;96851.69;;;16.50;100.00
44001;BME280;29660;42.892;24.710;2023-05-22T06:35:59;96762.63;;;16.43;97.44
44001;BME280;29660;42.892;24.710;2023-05-22T06:41:22;96350.38;;;13.84;97.13
44001;BME280;29660;42.892;24.710;2023-05-22T06:46:44;96305.44;;;13.81;96.04
44001;BME280;29660;42.892;24.710;2023-05-22T06:52:14;96759.72;;;17.14;92.29
44001;BME280;29660;42.892;24.710;2023-05-22T06:57:36;96463.66;;;15.66;91.31
44001;BME280;29660;42.892;24.710;2023-05-22T07:02:59;96819.19;;;18.16;89.77
44001;BME280;29660;42.892;24.710;2023-05-22T07:08:27;96841.25;;;18.71;87.36
44001;BME280;29660;42.892;24.710;2023-05-22T07:13:51;96294.84;;;15.47;87.04
44001;BME280;29660;42.892;24.710;2023-05-22T07:19:13;95958.41;;;13.42;81.97
44001;BME280;29660;42.892;24.710;2023-05-22T07:24:36;96819.13;;;19.56;77.35
44001;BME280;29660;42.892;24.710;2023-05-22T07:30:00;96741.84;;;19.08;72.91
44001;BME280;29660;42.892;24.710;2023-05-22T07:35:24;96788.88;;;19.51;75.15
44001;BME280;29660;42.892;24.710;2023-05-22T07:40:47;96330.72;;;16.53;74.71
44001;BME280;29660;42.892;24.710;2023-05-22T07:46:10;96872.75;;;19.82;73.85
44001;BME280;29660;42.892;24.710;2023-05-22T07:51:43;96332.69;;;16.68;71.50
44001;BME280;29660;42.892;24.710;2023-05-22T07:57:08;96334.44;;;16.88;69.34
44001;BME280;29660;42.892;24.710;2023-05-22T08:02:34;96733.13;;;19.46;74.68
44001;BME280;29660;42.892;24.710;2023-05-22T08:07:57;96778.41;;;19.81;72.84
44001;BME280;29660;42.892;24.710;2023-05-22T08:13:21;96333.31;;;16.49;75.00
44001;BME280;29660;42.892;24.710;2023-05-22T08:18:43;96319.78;;;16.33;78.08
44001;BME280;29660;42.892;24.710;2023-05-22T08:24:06;96882.47;;;19.40;79.20
44001;BME280;29660;42.892;24.710;2023-05-22T08:29:28;96418.56;;;16.98;77.21
44001;BME280;29660;42.892;24.710;2023-05-22T08:34:51;96843.69;;;19.64;77.78
44001;BME280;29660;42.892;24.710;2023-05-22T08:40:13;96471.69;;;17.25;77.21
44001;BME280;29660;42.892;24.710;2023-05-22T08:45:36;96575.44;;;18.00;77.15
44001;BME280;29660;42.892;24.710;2023-05-22T08:51:03;96849.97;;;19.83;79.51
44001;BME280;29660;42.892;24.710;2023-05-22T08:56:25;96349.50;;;16.77;77.18
44001;BME280;29660;42.892;24.710;2023-05-22T09:01:51;96565.13;;;18.18;76.77
44001;BME280;29660;42.892;24.710;2023-05-22T09:07:14;96357.56;;;17.05;77.92
44001;BME280;29660;42.892;24.710;2023-05-22T09:12:36;96393.53;;;17.69;78.11
44001;BME280;29660;42.892;24.710;2023-05-22T09:17:59;96266.06;;;17.09;75.81
44001;BME280;29660;42.892;24.710;2023-05-22T09:23:26;96297.03;;;17.15;74.31
44001;BME280;29660;42.892;24.710;2023-05-22T09:28:49;96503.88;;;18.69;75.65
44001;BME280;29660;42.892;24.710;2023-05-22T09:34:12;96822.53;;;20.91;76.70
44001;BME280;29660;42.892;24.710;2023-05-22T09:39:39;96131.25;;;16.86;66.64
44001;BME280;29660;42.892;24.710;2023-05-22T09:45:06;96431.81;;;19.08;70.84
44001;BME280;29660;42.892;24.710;2023-05-22T09:50:29;96802.78;;;21.55;69.16
44001;BME280;29660;42.892;24.710;2023-05-22T09:55:52;96269.72;;;18.15;67.54
44001;BME280;29660;42.892;24.710;2023-05-22T10:01:14;96714.19;;;21.21;63.82
44001;BME280;29660;42.892;24.710;2023-05-22T10:06:38;96693.13;;;21.60;62.45
44001;BME280;29660;42.892;24.710;2023-05-22T10:12:04;96712.72;;;22.03;58.37
44001;BME280;29660;42.892;24.710;2023-05-22T10:17:28;96792.31;;;22.34;55.38
44001;BME280;29660;42.892;24.710;2023-05-22T10:22:52;96298.91;;;19.49;56.72
44001;BME280;29660;42.892;24.710;2023-05-22T10:28:36;96619.53;;;21.65;56.96
44001;BME280;29660;42.892;24.710;2023-05-22T10:34:02;96852.34;;;23.15;56.86
44001;BME280;29660;42.892;24.710;2023-05-22T10:45:15;96832.31;;;23.31;57.90
44001;BME280;29660;42.892;24.710;2023-05-22T10:50:38;96474.19;;;21.34;59.16
44001;BME280;29660;42.892;24.710;2023-05-22T10:56:12;96190.47;;;19.08;62.69
44001;BME280;29660;42.892;24.710;2023-05-22T11:01:34;96342.47;;;20.13;61.99
44001;BME280;29660;42.892;24.710;2023-05-22T11:07:13;96748.34;;;23.33;61.10
44001;BME280;29660;42.892;24.710;2023-05-22T11:12:37;96674.03;;;22.81;61.23
44001;BME280;29660;42.892;24.710;2023-05-22T11:18:01;96725.97;;;23.09;60.03
44001;BME280;29660;42.892;24.710;2023-05-22T11:23:24;96443.78;;;21.21;59.21
44001;BME280;29660;42.892;24.710;2023-05-22T11:28:50;96646.97;;;22.95;62.98
44001;BME280;29660;42.892;24.710;2023-05-22T11:34:12;96747.16;;;23.74;60.46
44001;BME280;29660;42.892;24.710;2023-05-22T11:39:35;96298.97;;;20.28;60.27
44001;BME280;29660;42.892;24.710;2023-05-22T11:44:58;96615.78;;;21.20;64.16
44001;BME280;29660;42.892;24.710;2023-05-22T11:50:20;95784.75;;;15.17;68.62
44001;BME280;29660;42.892;24.710;2023-05-22T11:56:02;96731.31;;;20.79;71.53
44001;BME280;29660;42.892;24.710;2023-05-22T12:01:25;96609.22;;;20.29;73.34
44001;BME280;29660;42.892;24.710;2023-05-22T12:06:47;96763.25;;;22.11;74.16
44001;BME280;29660;42.892;24.710;2023-05-22T12:12:10;96145.94;;;18.33;73.39
44001;BME280;29660;42.892;24.710;2023-05-22T12:17:35;96731.31;;;22.61;69.57
44001;BME280;29660;42.892;24.710;2023-05-22T12:23:00;96725.75;;;22.17;69.93
44001;BME280;29660;42.892;24.710;2023-05-22T12:28:22;96669.97;;;21.40;74.48
44001;BME280;29660;42.892;24.710;2023-05-22T12:33:44;96600.97;;;20.22;90.70
44001;BME280;29660;42.892;24.710;2023-05-22T12:39:07;96181.19;;;16.39;100.00
44001;BME280;29660;42.892;24.710;2023-05-22T12:44:31;96736.81;;;19.22;100.00
44001;BME280;29660;42.892;24.710;2023-05-22T12:49:53;96682.13;;;18.97;100.00
44001;BME280;29660;42.892;24.710;2023-05-22T12:55:15;96602.13;;;18.17;100.00
44001;BME280;29660;42.892;24.710;2023-05-22T13:00:37;96270.66;;;16.36;100.00
44001;BME280;29660;42.892;24.710;2023-05-22T13:06:00;96701.69;;;19.73;100.00
44001;BME280;29660;42.892;24.710;2023-05-22T13:11:22;96530.66;;;18.74;100.00
44001;BME280;29660;42.892;24.710;2023-05-22T13:16:45;96623.75;;;19.28;100.00
44001;BME280;29660;42.892;24.710;2023-05-22T13:22:07;96121.63;;;15.57;100.00
44001;BME280;29660;42.892;24.710;2023-05-22T13:27:29;96286.09;;;16.52;100.00
44001;BME280;29660;42.892;24.710;2023-05-22T13:32:55;96659.53;;;19.05;100.00
44001;BME280;29660;42.892;24.710;2023-05-22T13:38:18;96736.78;;;19.54;100.00
44001;BME280;29660;42.892;24.710;2023-05-22T13:43:40;96724.41;;;19.88;100.00
44001;BME280;29660;42.892;24.710;2023-05-22T13:49:02;96722.53;;;20.08;100.00
44001;BME280;29660;42.892;24.710;2023-05-22T13:54:24;96160.34;;;16.52;96.23
44001;BME280;29660;42.892;24.710;2023-05-22T13:59:46;96671.69;;;19.47;100.00
44001;BME280;29660;42.892;24.710;2023-05-22T14:05:09;96694.75;;;19.09;100.00
44001;BME280;29660;42.892;24.710;2023-05-22T14:10:31;96688.31;;;18.98;100.00
44001;BME280;29660;42.892;24.710;2023-05-22T14:15:55;96707.84;;;19.23;100.00
44001;BME280;29660;42.892;24.710;2023-05-22T14:21:17;96301.69;;;16.46;100.00
44001;BME280;29660;42.892;24.710;2023-05-22T14:26:40;96700.06;;;18.18;100.00
44001;BME280;29660;42.892;24.710;2023-05-22T14:32:03;96633.06;;;17.67;100.00
44001;BME280;29660;42.892;24.710;2023-05-22T14:37:26;96602.19;;;16.87;100.00
44001;BME280;29660;42.892;24.710;2023-05-22T14:42:48;96514.03;;;16.02;100.00
44001;BME280;29660;42.892;24.710;2023-05-22T14:48:12;96213.06;;;13.79;100.00
44001;BME280;29660;42.892;24.710;2023-05-22T14:53:34;96635.75;;;16.32;100.00
44001;BME280;29660;42.892;24.710;2023-05-22T14:58:57;96512.75;;;15.87;100.00
44001;BME280;29660;42.892;24.710;2023-05-22T15:04:19;96695.81;;;17.15;100.00
44001;BME280;29660;42.892;24.710;2023-05-22T15:09:41;96213.31;;;14.07;100.00
44001;BME280;29660;42.892;24.710;2023-05-22T15:15:04;96651.94;;;16.57;100.00
44001;BME280;29660;42.892;24.710;2023-05-22T15:20:26;96758.81;;;16.77;100.00
44001;BME280;29660;42.892;24.710;2023-05-22T15:25:48;96170.66;;;12.62;100.00
44001;BME280;29660;42.892;24.710;2023-05-22T15:31:11;96518.44;;;14.69;100.00
44001;BME280;29660;42.892;24.710;2023-05-22T15:36:34;96326.06;;;13.51;100.00
44001;BME280;29660;42.892;24.710;2023-05-22T15:41:57;96141.47;;;12.31;100.00
44001;BME280;29660;42.892;24.710;2023-05-22T15:47:27;96791.31;;;16.39;100.00
44001;BME280;29660;42.892;24.710;2023-05-22T15:52:50;96800.06;;;16.06;100.00
44001;BME280;29660;42.892;24.710;2023-05-22T15:58:12;96814.72;;;15.97;100.00
44001;BME280;29660;42.892;24.710;2023-05-22T16:03:34;96235.84;;;12.23;100.00
44001;BME280;29660;42.892;24.710;2023-05-22T16:08:57;96340.88;;;12.84;100.00
44001;BME280;29660;42.892;24.710;2023-05-22T16:14:19;96224.38;;;11.96;100.00
44001;BME280;29660;42.892;24.710;2023-05-22T16:19:41;96245.91;;;11.91;100.00
44001;BME280;29660;42.892;24.710;2023-05-22T16:25:04;96826.28;;;15.50;100.00
44001;BME280;29660;42.892;24.710;2023-05-22T16:30:27;96851.56;;;15.58;100.00
44001;BME280;29660;42.892;24.710;2023-05-22T16:35:49;96718.50;;;15.05;100.00
44001;BME280;29660;42.892;24.710;2023-05-22T16:41:11;96332.41;;;12.47;100.00
44001;BME280;29660;42.892;24.710;2023-05-22T16:46:33;96781.03;;;15.22;100.00
44001;BME280;29660;42.892;24.710;2023-05-22T16:51:56;96755.19;;;15.01;100.00
44001;BME280;29660;42.892;24.710;2023-05-22T16:57:20;95729.56;;;8.35;100.00
44001;BME280;29660;42.892;24.710;2023-05-22T17:02:42;96576.16;;;13.81;100.00
44001;BME280;29660;42.892;24.710;2023-05-22T17:08:05;96738.06;;;14.67;100.00
44001;BME280;29660;42.892;24.710;2023-05-22T17:13:27;96324.38;;;11.55;100.00
44001;BME280;29660;42.892;24.710;2023-05-22T17:18:49;96373.13;;;11.39;100.00
44001;BME280;29660;42.892;24.710;2023-05-22T17:24:13;96874.16;;;14.66;100.00
44001;BME280;29660;42.892;24.710;2023-05-22T17:29:35;96903.06;;;14.78;100.00
44001;BME280;29660;42.892;24.710;2023-05-22T17:34:58;96936.47;;;14.46;100.00
44001;BME280;29660;42.892;24.710;2023-05-22T17:40:20;96670.47;;;13.17;100.00
44001;BME280;29660;42.892;24.710;2023-05-22T17:45:53;96765.81;;;13.75;100.00
44001;BME280;29660;42.892;24.710;2023-05-22T17:51:15;96344.31;;;10.96;100.00
44001;BME280;29660;42.892;24.710;2023-05-22T17:56:37;96510.66;;;12.03;100.00
44001;BME280;29660;42.892;24.710;2023-05-22T18:02:00;96416.00;;;11.42;100.00
44001;BME280;29660;42.892;24.710;2023-05-22T18:07:22;96228.13;;;10.14;100.00
44001;BME280;29660;42.892;24.710;2023-05-22T18:12:44;96853.59;;;14.36;100.00
44001;BME280;29660;42.892;24.710;2023-05-22T18:18:07;96282.44;;;10.63;100.00
44001;BME280;29660;42.892;24.710;2023-05-22T18:23:31;96120.59;;;9.42;100.00
44001;BME280;29660;42.892;24.710;2023-05-22T18:28:53;96400.00;;;10.89;100.00
44001;BME280;29660;42.892;24.710;2023-05-22T18:34:15;96859.06;;;13.96;100.00
44001;BME280;29660;42.892;24.710;2023-05-22T18:39:38;95988.13;;;8.17;100.00
44001;BME280;29660;42.892;24.710;2023-05-22T18:45:00;96417.50;;;10.81;100.00
44001;BME280;29660;42.892;24.710;2023-05-22T18:50:22;96711.50;;;12.64;100.00
44001;BME280;29660;42.892;24.710;2023-05-22T18:55:44;95722.03;;;4.76;100.00
44001;BME280;29660;42.892;24.710;2023-05-22T19:01:07;96902.63;;;13.70;100.00
44001;BME280;29660;42.892;24.710;2023-05-22T19:06:29;96539.44;;;11.39;100.00
44001;BME280;29660;42.892;24.710;2023-05-22T19:11:51;96869.13;;;13.50;100.00
44001;BME280;29660;42.892;24.710;2023-05-22T19:17:13;96288.72;;;9.72;100.00
44001;BME280;29660;42.892;24.710;2023-05-22T19:22:36;96781.97;;;12.82;100.00
44001;BME280;29660;42.892;24.710;2023-05-22T19:27:59;96401.44;;;10.22;100.00
44001;BME280;29660;42.892;24.710;2023-05-22T19:33:21;96505.09;;;10.88;100.00
44001;BME280;29660;42.892;24.710;2023-05-22T19:38:46;96531.19;;;10.91;100.00
44001;BME280;29660;42.892;24.710;2023-05-22T19:44:09;96896.59;;;13.11;100.00
44001;BME280;29660;42.892;24.710;2023-05-22T19:49:31;95841.41;;;6.17;100.00
44001;BME280;29660;42.892;24.710;2023-05-22T19:54:57;96309.81;;;9.27;100.00
44001;BME280;29660;42.892;24.710;2023-05-22T20:00:19;96419.78;;;9.96;100.00
44001;BME280;29660;42.892;24.710;2023-05-22T20:05:42;96900.84;;;13.12;100.00
44001;BME280;29660;42.892;24.710;2023-05-22T20:11:04;96652.19;;;11.36;100.00
44001;BME280;29660;42.892;24.710;2023-05-22T20:16:26;96760.91;;;12.22;100.00
44001;BME280;29660;42.892;24.710;2023-05-22T20:21:50;96728.34;;;11.97;100.00
44001;BME280;29660;42.892;24.710;2023-05-22T20:27:13;96763.00;;;12.25;100.00
44001;BME280;29660;42.892;24.710;2023-05-22T20:32:35;96911.03;;;12.79;100.00
44001;BME280;29660;42.892;24.710;2023-05-22T20:37:59;96871.44;;;12.90;100.00
44001;BME280;29660;42.892;24.710;2023-05-22T20:43:24;96722.31;;;11.92;100.00
44001;BME280;29660;42.892;24.710;2023-05-22T20:48:47;96880.47;;;12.80;100.00
44001;BME280;29660;42.892;24.710;2023-05-22T20:54:09;96266.72;;;8.83;100.00
44001;BME280;29660;42.892;24.710;2023-05-22T20:59:32;96335.75;;;9.21;100.00
44001;BME280;29660;42.892;24.710;2023-05-22T21:04:54;96994.88;;;12.74;100.00
44001;BME280;29660;42.892;24.710;2023-05-22T21:10:16;96439.69;;;9.57;100.00
44001;BME280;29660;42.892;24.710;2023-05-22T21:15:38;96300.53;;;8.50;100.00
44001;BME280;29660;42.892;24.710;2023-05-22T21:21:00;96782.88;;;11.55;100.00
44001;BME280;29660;42.892;24.710;2023-05-22T21:26:23;96302.38;;;8.31;100.00
44001;BME280;29660;42.892;24.710;2023-05-22T21:31:45;96721.19;;;10.88;100.00
44001;BME280;29660;42.892;24.710;2023-05-22T21:37:08;96902.03;;;11.97;100.00
44001;BME280;29660;42.892;24.710;2023-05-22T21:42:30;96314.88;;;8.11;100.00
44001;BME280;29660;42.892;24.710;2023-05-22T21:48:05;96759.53;;;10.92;100.00
44001;BME280;29660;42.892;24.710;2023-05-22T21:53:27;96400.41;;;8.51;100.00
44001;BME280;29660;42.892;24.710;2023-05-22T21:58:49;96872.31;;;11.58;100.00
44001;BME280;29660;42.892;24.710;2023-05-22T22:04:11;96898.06;;;11.67;100.00
44001;BME280;29660;42.892;24.710;2023-05-22T22:09:34;96934.38;;;11.36;100.00
44001;BME280;29660;42.892;24.710;2023-05-22T22:14:56;96786.78;;;10.75;100.00
44001;BME280;29660;42.892;24.710;2023-05-22T22:20:18;96558.16;;;9.22;100.00
44001;BME280;29660;42.892;24.710;2023-05-22T22:25:51;96963.56;;;11.32;100.00
44001;BME280;29660;42.892;24.710;2023-05-22T22:31:13;96515.94;;;8.78;100.00
44001;BME280;29660;42.892;24.710;2023-05-22T22:36:35;96713.44;;;9.07;100.00
44001;BME280;29660;42.892;24.710;2023-05-22T22:41:57;96745.66;;;10.11;100.00
44001;BME280;29660;42.892;24.710;2023-05-22T22:47:26;96294.94;;;7.04;100.00
44001;BME280;29660;42.892;24.710;2023-05-22T22:52:48;96887.84;;;10.76;100.00
44001;BME280;29660;42.892;24.710;2023-05-22T22:58:10;96776.31;;;9.89;100.00
44001;BME280;29660;42.892;24.710;2023-05-22T23:03:33;96891.09;;;10.54;100.00
44001;BME280;29660;42.892;24.710;2023-05-22T23:08:55;96668.63;;;9.20;100.00
44001;BME280;29660;42.892;24.710;2023-05-22T23:14:19;96339.56;;;6.97;100.00
44001;BME280;29660;42.892;24.710;2023-05-22T23:19:41;96869.06;;;10.30;100.00
44001;BME280;29660;42.892;24.710;2023-05-22T23:25:04;96326.50;;;6.77;100.00
44001;BME280;29660;42.892;24.710;2023-05-22T23:30:26;96854.41;;;9.84;100.00
44001;BME280;29660;42.892;24.710;2023-05-22T23:35:48;96464.06;;;7.71;100.00
44001;BME280;29660;42.892;24.710;2023-05-22T23:41:12;96878.34;;;10.32;100.00
44001;BME280;29660;42.892;24.710;2023-05-22T23:46:34;96862.81;;;10.16;100.00
44001;BME280;29660;42.892;24.710;2023-05-22T23:51:58;96836.38;;;10.00;100.00
44001;BME280;29660;42.892;24.710;2023-05-22T23:57:20;96946.13;;;10.26;100.00
